Time;durP1;ratioP1;P1;durP2;ratioP2;P2;SDS_P1;SDS_P2;PMS_P1;PMS_P2;Temp;Humidity;BMP_temperature;BMP_pressure;BME280_temperature;BME280_humidity;BME280_pressure;Samples;Min_cycle;Max_cycle;Signal;HPM_P1;HPM_P2
2023/01/05 00:02:02;;;;;;;0.60;0.60;;;13.70;99.90;;;;;;910677;155;27466;-79
2023/01/05 00:04:29;;;;;;;0.35;0.35;;;13.70;99.90;;;;;;908754;155;27497;-78
2023/01/05 00:06:55;;;;;;;0.50;0.50;;;13.70;99.90;;;;;;913530;155;27401;-78
2023/01/05 00:09:22;;;;;;;0.40;0.40;;;13.70;99.90;;;;;;906897;155;27514;-78
2023/01/05 00:22:49;;;;;;;0.50;0.50;;;13.50;99.90;;;;;;912206;153;27422;-79
2023/01/05 00:25:25;;;;;;;0.63;0.50;;;13.50;99.90;;;;;;907920;155;27402;-80
2023/01/05 00:27:52;;;;;;;1.97;0.50;;;13.50;99.90;;;;;;908042;155;27417;-80
2023/01/05 00:30:18;;;;;;;1.00;0.40;;;13.50;99.90;;;;;;910692;155;27742;-79
2023/01/05 00:32:45;;;;;;;0.50;0.50;;;13.40;99.90;;;;;;908147;155;27404;-79
2023/01/05 00:35:11;;;;;;;0.70;0.40;;;13.40;99.90;;;;;;910417;155;27493;-80
2023/01/05 00:37:38;;;;;;;0.37;0.37;;;13.40;99.90;;;;;;908942;155;27337;-80
2023/01/05 00:40:04;;;;;;;0.37;0.37;;;13.50;99.90;;;;;;908040;153;27387;-79
2023/01/05 00:42:31;;;;;;;0.50;0.40;;;13.40;99.90;;;;;;910847;155;27439;-80
2023/01/05 00:44:58;;;;;;;0.35;0.35;;;13.40;99.90;;;;;;908554;155;27512;-81
2023/01/05 00:47:24;;;;;;;0.30;0.30;;;13.50;99.90;;;;;;910449;155;27424;-80
2023/01/05 00:49:51;;;;;;;0.45;0.45;;;13.50;99.90;;;;;;908727;155;27372;-79
2023/01/05 00:52:17;;;;;;;0.50;0.50;;;13.50;99.90;;;;;;907225;155;27503;-79
2023/01/05 00:54:44;;;;;;;0.50;0.50;;;13.50;99.90;;;;;;910316;155;27420;-79
2023/01/05 00:57:10;;;;;;;0.70;0.70;;;13.50;99.90;;;;;;908557;153;27409;-79
2023/01/05 00:59:37;;;;;;;0.70;0.70;;;13.50;99.90;;;;;;910485;155;27396;-79
2023/01/05 01:02:04;;;;;;;0.40;0.40;;;13.50;99.90;;;;;;910916;155;27386;-79
2023/01/05 01:04:30;;;;;;;0.33;0.33;;;13.50;99.90;;;;;;911946;155;27389;-78
2023/01/05 01:06:57;;;;;;;0.37;0.37;;;13.50;99.90;;;;;;910529;155;27492;-78
2023/01/05 01:09:23;;;;;;;0.30;0.30;;;13.50;99.90;;;;;;910466;153;27513;-78
2023/01/05 01:11:50;;;;;;;0.40;0.40;;;13.50;99.90;;;;;;912047;155;27319;-79
2023/01/05 01:14:17;;;;;;;0.87;0.50;;;13.50;99.90;;;;;;909419;153;27424;-79
2023/01/05 01:16:43;;;;;;;0.50;0.50;;;13.60;99.90;;;;;;912104;155;27432;-79
2023/01/05 01:19:15;;;;;;;0.40;0.30;;;13.50;99.90;;;;;;906111;155;27472;-78
2023/01/05 01:21:42;;;;;;;0.20;0.20;;;13.50;99.90;;;;;;901715;156;27444;-79
2023/01/05 01:24:08;;;;;;;0.70;0.57;;;13.50;99.90;;;;;;902457;157;27520;-79
2023/01/05 01:26:35;;;;;;;0.53;0.30;;;13.50;99.90;;;;;;904179;156;27351;-78
2023/01/05 01:29:02;;;;;;;0.30;0.30;;;13.50;99.90;;;;;;903041;156;27519;-79
2023/01/05 01:31:28;;;;;;;0.27;0.27;;;13.50;99.90;;;;;;902920;156;27374;-79
2023/01/05 01:33:55;;;;;;;0.80;0.80;;;13.50;99.90;;;;;;902385;157;27547;-80
2023/01/05 01:36:21;;;;;;;0.40;0.40;;;13.50;99.90;;;;;;901449;156;27379;-79
2023/01/05 01:38:48;;;;;;;0.30;0.30;;;13.50;99.90;;;;;;901225;157;27417;-78
2023/01/05 01:41:15;;;;;;;0.17;0.17;;;13.50;99.90;;;;;;904723;157;27481;-79
2023/01/05 01:43:44;;;;;;;0.50;0.40;;;13.50;99.90;;;;;;903433;156;28299;-79
2023/01/05 01:46:11;;;;;;;0.10;0.10;;;13.50;99.90;;;;;;900769;156;27465;-79
2023/01/05 01:48:37;;;;;;;0.30;0.30;;;13.50;99.90;;;;;;900959;156;27377;-78
2023/01/05 01:51:04;;;;;;;0.30;0.30;;;13.50;99.90;;;;;;901340;156;27515;-79
2023/01/05 01:53:42;;;;;;;0.20;0.20;;;13.50;99.90;;;;;;901151;154;27845;-79
2023/01/05 01:56:09;;;;;;;0.40;0.40;;;13.50;99.90;;;;;;904568;156;27362;-78
2023/01/05 01:58:35;;;;;;;0.20;0.20;;;13.50;99.90;;;;;;899458;156;27372;-79
2023/01/05 02:01:02;;;;;;;0.23;0.23;;;13.50;99.90;;;;;;900374;157;27399;-80
2023/01/05 02:03:28;;;;;;;0.43;0.40;;;13.50;99.90;;;;;;901919;156;27439;-79
2023/01/05 02:05:55;;;;;;;0.60;0.30;;;13.50;99.90;;;;;;901890;156;27418;-80
2023/01/05 02:08:30;;;;;;;0.20;0.20;;;13.50;99.90;;;;;;902400;157;27401;-78
2023/01/05 02:10:59;;;;;;;0.30;0.30;;;13.50;99.90;;;;;;917293;154;27482;-80
2023/01/05 02:13:56;;;;;;;0.75;0.30;;;13.50;99.90;;;;;;926268;149;27317;-80
2023/01/05 02:16:47;;;;;;;0.40;0.40;;;13.50;99.90;;;;;;925838;153;27384;-79
2023/01/05 02:19:16;;;;;;;0.33;0.33;;;13.50;99.90;;;;;;927228;150;27841;-79
2023/01/05 02:22:04;;;;;;;0.47;0.20;;;13.50;99.90;;;;;;940687;150;27562;-79
2023/01/05 02:24:31;;;;;;;0.37;0.30;;;13.50;99.90;;;;;;939368;150;27386;-79
2023/01/05 02:27:19;;;;;;;0.40;0.30;;;13.50;99.90;;;;;;900897;155;27363;-78
2023/01/05 02:30:13;;;;;;;0.20;0.20;;;13.50;99.90;;;;;;913085;153;27318;-79
2023/01/05 02:32:42;;;;;;;0.30;0.30;;;13.50;99.90;;;;;;925151;153;27382;-80
2023/01/05 02:35:24;;;;;;;0.20;0.20;;;13.50;99.90;;;;;;924329;149;27479;-79
2023/01/05 02:38:09;;;;;;;0.28;0.28;;;13.50;99.90;;;;;;926447;153;27543;-80
2023/01/05 02:40:41;;;;;;;1.17;0.30;;;13.50;99.90;;;;;;926049;152;27403;-79
2023/01/05 02:43:08;;;;;;;0.67;0.40;;;13.50;99.90;;;;;;902007;158;27429;-79
2023/01/05 02:45:35;;;;;;;0.67;0.30;;;13.50;99.90;;;;;;938867;150;27441;-80
2023/01/05 02:48:01;;;;;;;0.20;0.20;;;13.50;99.90;;;;;;924630;153;27514;-79
2023/01/05 02:50:33;;;;;;;0.87;0.77;;;13.60;99.90;;;;;;922284;153;27480;-79
2023/01/05 02:53:06;;;;;;;0.30;0.25;;;13.60;99.90;;;;;;923563;153;27344;-79
2023/01/05 02:55:35;;;;;;;1.02;0.40;;;13.60;99.90;;;;;;926321;153;27423;-79
2023/01/05 02:58:02;;;;;;;0.30;0.30;;;13.60;99.90;;;;;;925611;153;27371;-79
2023/01/05 03:00:28;;;;;;;1.40;0.40;;;13.60;99.90;;;;;;924984;151;27400;-79
2023/01/05 03:03:01;;;;;;;0.37;0.37;;;13.60;99.90;;;;;;924268;153;27364;-79
2023/01/05 03:05:39;;;;;;;1.53;0.83;;;13.60;99.90;;;;;;921805;152;27380;-78
2023/01/05 03:08:06;;;;;;;0.40;0.30;;;13.70;99.90;;;;;;927505;153;27538;-79
2023/01/05 03:16:00;;;;;;;0.62;0.40;;;13.70;99.90;;;;;;901110;153;27316;-79
2023/01/05 03:18:22;;;;;;;0.60;0.60;;;13.70;99.90;;;;;;925316;153;27419;-77
2023/01/05 03:20:49;;;;;;;1.75;0.60;;;13.70;99.90;;;;;;917638;153;27532;-79
2023/01/05 03:37:14;;;;;;;1.20;0.98;;;13.80;99.90;;;;;;891747;160;27420;-78
2023/01/05 03:39:41;;;;;;;1.22;0.60;;;13.80;99.90;;;;;;923229;153;27337;-79
2023/01/05 03:42:07;;;;;;;0.72;0.70;;;13.80;99.90;;;;;;925485;151;27385;-79
2023/01/05 03:44:40;;;;;;;1.17;0.88;;;13.80;99.90;;;;;;924545;151;27294;-79
2023/01/05 03:47:07;;;;;;;1.77;0.80;;;13.80;99.90;;;;;;924924;153;27406;-75
2023/01/05 03:49:33;;;;;;;1.60;0.80;;;13.80;99.90;;;;;;927657;150;27358;-75
2023/01/05 03:52:00;;;;;;;1.20;0.78;;;13.80;99.90;;;;;;922719;153;27339;-74
2023/01/05 03:54:26;;;;;;;3.40;0.70;;;13.80;99.90;;;;;;924994;153;27375;-75
2023/01/05 03:56:53;;;;;;;2.30;1.00;;;13.80;99.90;;;;;;924797;153;27354;-77
2023/01/05 03:59:19;;;;;;;1.93;1.03;;;13.80;99.90;;;;;;922776;153;27425;-75
2023/01/05 04:01:46;;;;;;;2.93;1.00;;;13.90;99.90;;;;;;924786;153;27368;-74
2023/01/05 04:04:13;;;;;;;1.95;0.90;;;13.90;99.90;;;;;;925178;153;27342;-75
2023/01/05 04:06:39;;;;;;;3.80;1.32;;;13.90;99.90;;;;;;924065;153;27431;-75
2023/01/05 04:09:06;;;;;;;4.30;1.35;;;13.80;99.90;;;;;;923558;153;27401;-74
2023/01/05 04:11:32;;;;;;;2.20;0.95;;;13.80;99.90;;;;;;927262;153;27379;-75
2023/01/05 04:13:59;;;;;;;3.70;1.10;;;13.80;99.90;;;;;;927790;152;27444;-74
2023/01/05 04:16:27;;;;;;;5.20;1.17;;;13.80;99.90;;;;;;924375;151;27316;-75
2023/01/05 04:18:52;;;;;;;4.00;1.30;;;13.80;99.90;;;;;;922525;150;27439;-77
2023/01/05 04:21:19;;;;;;;3.27;1.20;;;13.80;99.90;;;;;;926076;150;27413;-75
2023/01/05 04:23:45;;;;;;;5.53;1.45;;;13.70;99.90;;;;;;924459;152;27334;-74
2023/01/05 04:26:12;;;;;;;2.70;1.17;;;13.70;99.90;;;;;;926882;153;27478;-75
2023/01/05 04:28:39;;;;;;;3.17;1.20;;;13.70;99.90;;;;;;925966;152;27367;-75
2023/01/05 04:31:05;;;;;;;6.60;1.52;;;13.60;99.90;;;;;;925778;151;27369;-77
2023/01/05 04:33:32;;;;;;;5.97;1.80;;;13.60;99.90;;;;;;923984;150;27481;-74
2023/01/05 04:35:58;;;;;;;5.85;1.80;;;13.60;99.90;;;;;;924323;151;27285;-75
2023/01/05 04:38:25;;;;;;;5.62;1.62;;;13.60;99.90;;;;;;924447;153;27356;-75
2023/01/05 04:40:51;;;;;;;2.72;1.40;;;13.60;99.90;;;;;;922398;153;27476;-75
2023/01/05 04:43:18;;;;;;;3.47;1.25;;;13.50;99.90;;;;;;924912;153;27472;-75
2023/01/05 04:45:47;;;;;;;4.25;1.77;;;13.50;99.90;;;;;;924610;152;28451;-74
2023/01/05 04:48:14;;;;;;;5.53;1.45;;;13.50;99.90;;;;;;924565;150;27411;-75
2023/01/05 04:50:40;;;;;;;4.10;1.37;;;13.40;99.90;;;;;;928399;151;27284;-74
2023/01/05 04:53:07;;;;;;;3.60;1.40;;;13.40;99.90;;;;;;922884;153;27421;-76
2023/01/05 04:55:34;;;;;;;5.07;1.73;;;13.40;99.90;;;;;;927871;151;28855;-74
2023/01/05 04:58:00;;;;;;;5.37;1.72;;;13.40;99.90;;;;;;924402;151;27391;-74
2023/01/05 05:00:29;;;;;;;4.85;1.82;;;13.40;99.90;;;;;;923586;152;27465;-74
2023/01/05 05:02:53;;;;;;;5.03;1.98;;;13.40;99.90;;;;;;924570;153;27307;-77
2023/01/05 05:05:20;;;;;;;5.25;1.90;;;13.40;99.90;;;;;;926971;153;27475;-74
2023/01/05 05:07:47;;;;;;;5.53;2.33;;;13.40;99.90;;;;;;925167;150;27385;-74
2023/01/05 05:10:16;;;;;;;5.87;1.70;;;13.30;99.90;;;;;;924418;153;27471;-75
2023/01/05 05:12:40;;;;;;;6.28;2.22;;;13.30;99.90;;;;;;924897;150;27322;-74
2023/01/05 05:15:07;;;;;;;6.80;2.20;;;13.30;99.90;;;;;;924619;153;27478;-74
2023/01/05 05:17:33;;;;;;;5.97;2.30;;;13.30;99.90;;;;;;928067;153;27373;-74
2023/01/05 05:20:00;;;;;;;7.58;2.02;;;13.30;99.90;;;;;;920748;153;27350;-74
2023/01/05 05:22:27;;;;;;;6.90;2.72;;;13.30;99.90;;;;;;933477;150;27492;-75
2023/01/05 05:24:53;;;;;;;6.83;2.43;;;13.30;99.90;;;;;;941743;150;27354;-75
2023/01/05 05:27:20;;;;;;;4.78;1.90;;;13.30;99.90;;;;;;944311;150;27387;-74
2023/01/05 05:29:46;;;;;;;5.17;2.20;;;13.30;99.90;;;;;;923259;155;27384;-74
2023/01/05 05:32:13;;;;;;;4.92;1.98;;;13.30;99.90;;;;;;907103;155;27535;-76
2023/01/05 05:34:39;;;;;;;7.58;2.22;;;13.20;99.90;;;;;;906106;155;27491;-74
2023/01/05 05:37:06;;;;;;;7.47;2.13;;;13.20;99.90;;;;;;941722;150;27394;-77
2023/01/05 05:39:32;;;;;;;4.80;1.90;;;13.20;99.90;;;;;;942462;150;27376;-75
2023/01/05 05:41:59;;;;;;;9.40;2.60;;;13.20;99.90;;;;;;939342;150;27378;-74
2023/01/05 05:44:26;;;;;;;8.03;2.20;;;13.20;99.90;;;;;;941183;150;27427;-74
2023/01/05 05:46:52;;;;;;;7.47;2.03;;;13.10;99.90;;;;;;942407;148;27366;-75
2023/01/05 05:49:19;;;;;;;8.43;1.87;;;13.10;99.90;;;;;;942558;150;27480;-75
2023/01/05 05:51:45;;;;;;;7.83;2.00;;;13.00;99.90;;;;;;944410;150;27389;-74
2023/01/05 05:54:12;;;;;;;6.00;2.20;;;13.00;99.90;;;;;;926978;152;27353;-75
2023/01/05 05:56:39;;;;;;;4.23;1.70;;;13.00;99.90;;;;;;924865;152;27406;-76
2023/01/05 05:59:05;;;;;;;5.50;2.03;;;13.00;99.90;;;;;;928365;152;27778;-77
2023/01/05 06:01:32;;;;;;;5.30;1.67;;;12.90;99.90;;;;;;928920;152;27471;-74
2023/01/05 06:03:59;;;;;;;5.87;1.83;;;12.90;99.90;;;;;;927505;152;27303;-73
2023/01/05 06:06:25;;;;;;;8.90;2.30;;;12.90;99.90;;;;;;928416;152;27339;-75
2023/01/05 06:08:51;;;;;;;5.05;2.00;;;12.90;99.90;;;;;;931851;151;27473;-75
2023/01/05 06:11:18;;;;;;;7.10;2.85;;;12.90;99.90;;;;;;930965;149;27476;-78
2023/01/05 06:13:45;;;;;;;9.05;1.87;;;12.90;99.90;;;;;;938463;150;27472;-75
2023/01/05 06:16:11;;;;;;;5.97;2.90;;;12.90;99.90;;;;;;941013;150;27463;-75
2023/01/05 06:18:38;;;;;;;5.83;1.98;;;12.90;99.90;;;;;;941687;147;27378;-75
2023/01/05 06:21:04;;;;;;;8.23;2.70;;;12.90;99.90;;;;;;917763;152;27369;-77
2023/01/05 06:23:31;;;;;;;6.85;2.20;;;13.00;99.90;;;;;;926281;150;27508;-78
2023/01/05 06:25:58;;;;;;;9.20;2.90;;;12.90;99.90;;;;;;924523;152;27336;-75
2023/01/05 06:28:24;;;;;;;8.30;2.00;;;12.90;99.90;;;;;;918761;152;27554;-75
2023/01/05 06:30:51;;;;;;;5.42;1.90;;;13.00;99.90;;;;;;919172;153;27305;-75
2023/01/05 06:33:18;;;;;;;7.25;2.30;;;13.00;99.90;;;;;;918259;153;27462;-77
2023/01/05 06:35:44;;;;;;;7.22;2.62;;;13.00;99.90;;;;;;911090;155;27712;-76
2023/01/05 06:38:11;;;;;;;4.63;2.10;;;13.00;99.90;;;;;;938362;150;27403;-74
2023/01/05 06:40:37;;;;;;;6.47;2.17;;;13.00;99.90;;;;;;902058;156;27350;-74
2023/01/05 06:43:04;;;;;;;7.37;2.47;;;13.00;99.90;;;;;;922188;152;27423;-77
2023/01/05 06:45:30;;;;;;;6.72;2.40;;;13.00;99.90;;;;;;924416;151;27395;-74
2023/01/05 06:47:57;;;;;;;9.75;2.55;;;13.00;99.90;;;;;;926496;153;27287;-75
2023/01/05 06:50:23;;;;;;;5.40;1.92;;;13.00;99.90;;;;;;924818;153;27331;-77
2023/01/05 06:52:50;;;;;;;7.37;2.60;;;13.00;99.90;;;;;;926047;153;27341;-75
2023/01/05 06:55:17;;;;;;;6.75;2.10;;;13.00;99.90;;;;;;926079;153;27380;-78
2023/01/05 06:57:43;;;;;;;7.03;2.12;;;13.00;99.90;;;;;;924453;153;27860;-74
2023/01/05 07:00:10;;;;;;;6.08;2.30;;;13.10;99.90;;;;;;926344;153;27294;-75
2023/01/05 07:02:37;;;;;;;5.28;2.42;;;13.10;99.90;;;;;;922862;150;27487;-75
2023/01/05 07:05:03;;;;;;;7.30;2.52;;;13.10;99.90;;;;;;925383;149;27390;-77
2023/01/05 07:07:30;;;;;;;7.70;2.30;;;13.10;99.90;;;;;;926338;153;27371;-73
2023/01/05 07:09:56;;;;;;;4.13;1.77;;;13.10;99.90;;;;;;922875;153;27342;-75
2023/01/05 07:12:23;;;;;;;9.55;2.45;;;13.10;99.90;;;;;;926093;153;27402;-75
2023/01/05 07:14:49;;;;;;;6.62;2.12;;;13.10;99.90;;;;;;926853;153;27383;-78
2023/01/05 07:17:16;;;;;;;8.10;2.20;;;13.10;99.90;;;;;;921767;150;27444;-78
2023/01/05 07:19:43;;;;;;;5.15;2.20;;;13.10;99.90;;;;;;925534;153;27450;-75
2023/01/05 07:22:09;;;;;;;6.45;2.75;;;13.10;99.90;;;;;;925946;153;27414;-74
2023/01/05 07:24:36;;;;;;;5.35;2.58;;;13.10;99.90;;;;;;913077;153;27899;-76
2023/01/05 07:27:02;;;;;;;7.72;2.08;;;13.10;99.90;;;;;;913760;152;27377;-78
2023/01/05 07:29:29;;;;;;;10.67;2.70;;;13.20;99.80;;;;;;916204;154;27389;-75
2023/01/05 07:31:56;;;;;;;5.20;1.67;;;13.20;99.80;;;;;;912559;154;27380;-73
2023/01/05 07:34:22;;;;;;;5.67;2.13;;;13.20;99.70;;;;;;892161;157;27414;-78
2023/01/05 07:36:49;;;;;;;6.13;2.37;;;13.20;99.70;;;;;;925700;150;27275;-76
2023/01/05 07:39:15;;;;;;;6.37;2.40;;;13.20;99.50;;;;;;926637;151;27454;-75
2023/01/05 07:41:42;;;;;;;6.33;2.20;;;13.20;99.40;;;;;;924388;153;27416;-75
2023/01/05 07:44:08;;;;;;;3.87;2.13;;;13.20;99.40;;;;;;922535;153;27389;-75
2023/01/05 07:46:35;;;;;;;4.90;1.92;;;13.20;99.30;;;;;;927107;150;27287;-76
2023/01/05 07:49:02;;;;;;;6.10;2.27;;;13.20;99.10;;;;;;923025;151;27322;-78
2023/01/05 07:51:28;;;;;;;4.93;2.17;;;13.20;99.50;;;;;;923065;153;27668;-74
2023/01/05 07:53:55;;;;;;;5.28;2.27;;;13.20;99.00;;;;;;926685;153;27294;-74
2023/01/05 07:56:21;;;;;;;6.75;1.92;;;13.30;98.90;;;;;;924250;151;27845;-76
2023/01/05 07:58:48;;;;;;;5.72;2.47;;;13.30;98.80;;;;;;923987;152;27358;-75
2023/01/05 08:01:16;;;;;;;5.63;2.30;;;13.30;98.80;;;;;;925978;152;27454;-81
2023/01/05 08:03:41;;;;;;;5.97;1.77;;;13.30;98.70;;;;;;924086;152;27518;-77
2023/01/05 08:06:08;;;;;;;7.77;2.10;;;13.30;98.60;;;;;;923490;153;27363;-77
2023/01/05 08:08:34;;;;;;;6.67;2.77;;;13.30;98.60;;;;;;922430;153;27371;-76
2023/01/05 08:11:04;;;;;;;7.22;2.10;;;13.40;98.50;;;;;;926099;151;27273;-77
2023/01/05 08:16:15;;;;;;;4.97;1.60;;;13.40;98.70;;;;;;924776;153;27725;-74
2023/01/05 08:18:42;;;;;;;6.07;2.10;;;13.40;98.70;;;;;;925116;152;27498;-75
2023/01/05 08:21:09;;;;;;;3.27;2.00;;;13.50;98.90;;;;;;922597;151;27415;-76
2023/01/05 08:23:35;;;;;;;5.93;2.20;;;13.50;99.00;;;;;;923808;151;27555;-75
2023/01/05 08:26:04;;;;;;;5.53;1.82;;;13.60;99.10;;;;;;922546;151;27369;-74
2023/01/05 08:28:31;;;;;;;4.20;1.70;;;13.60;99.10;;;;;;922722;149;27317;-74
2023/01/05 08:31:01;;;;;;;3.37;1.45;;;13.70;98.90;;;;;;924842;151;27373;-74
2023/01/05 08:33:28;;;;;;;4.55;1.80;;;13.80;98.80;;;;;;924168;152;27390;-75
2023/01/05 08:35:54;;;;;;;3.00;1.42;;;13.80;98.70;;;;;;927211;153;27387;-73
2023/01/05 08:38:21;;;;;;;4.17;2.08;;;13.90;98.70;;;;;;924532;151;27397;-74
2023/01/05 08:40:47;;;;;;;5.53;2.02;;;13.90;98.70;;;;;;925482;150;27414;-74
2023/01/05 08:43:14;;;;;;;2.02;1.40;;;14.00;98.70;;;;;;925868;150;27326;-74
2023/01/05 08:45:40;;;;;;;3.90;1.80;;;14.10;98.50;;;;;;924292;152;27457;-78
2023/01/05 08:48:08;;;;;;;6.22;3.12;;;14.10;98.20;;;;;;921941;150;27396;-74
2023/01/05 08:50:33;;;;;;;3.67;1.95;;;14.20;98.10;;;;;;923075;153;27347;-74
2023/01/05 08:53:00;;;;;;;4.05;1.32;;;14.20;97.90;;;;;;921135;153;27300;-74
2023/01/05 08:55:26;;;;;;;5.25;1.85;;;14.30;97.80;;;;;;925894;153;27418;-76
2023/01/05 08:57:53;;;;;;;6.80;2.05;;;14.30;97.70;;;;;;923645;153;27377;-75
2023/01/05 09:00:20;;;;;;;3.25;1.77;;;14.30;97.50;;;;;;925816;152;27487;-75
2023/01/05 09:02:46;;;;;;;4.75;1.77;;;14.40;97.10;;;;;;924381;153;27459;-75
2023/01/05 09:05:13;;;;;;;4.00;2.15;;;14.40;97.00;;;;;;921501;153;27538;-76
2023/01/05 09:07:39;;;;;;;4.83;1.90;;;14.40;96.70;;;;;;923155;151;27810;-78
2023/01/05 09:10:06;;;;;;;6.65;2.15;;;14.40;96.20;;;;;;925169;153;27432;-78
2023/01/05 09:12:35;;;;;;;5.12;1.87;;;14.40;96.00;;;;;;925861;153;27369;-76
2023/01/05 09:15:02;;;;;;;7.50;2.10;;;14.40;96.20;;;;;;924349;150;27352;-75
2023/01/05 09:17:28;;;;;;;6.67;2.20;;;14.40;96.30;;;;;;924408;152;27354;-79
2023/01/05 09:19:55;;;;;;;5.40;2.12;;;14.40;96.40;;;;;;927021;151;27780;-75
2023/01/05 09:22:22;;;;;;;6.92;2.50;;;14.40;96.20;;;;;;926908;152;27713;-75
2023/01/05 09:24:48;;;;;;;3.98;1.77;;;14.40;96.00;;;;;;917194;150;27408;-75
2023/01/05 09:27:15;;;;;;;4.95;1.65;;;14.40;95.90;;;;;;893982;159;27521;-78
2023/01/05 09:29:41;;;;;;;3.60;1.65;;;14.40;95.90;;;;;;893552;158;27457;-75
2023/01/05 09:32:10;;;;;;;6.00;2.22;;;14.50;96.00;;;;;;892007;158;27362;-76
2023/01/05 09:34:35;;;;;;;6.35;2.02;;;14.50;96.00;;;;;;897898;157;27500;-74
2023/01/05 09:37:01;;;;;;;5.95;1.80;;;14.50;96.10;;;;;;886667;160;27423;-78
2023/01/05 09:39:28;;;;;;;3.95;1.95;;;14.50;96.20;;;;;;896326;158;27455;-75
2023/01/05 09:41:54;;;;;;;5.25;2.00;;;14.60;96.10;;;;;;880929;161;27530;-74
2023/01/05 09:44:35;;;;;;;5.95;1.70;;;14.60;96.10;;;;;;895841;158;27343;-75
2023/01/05 09:47:00;;;;;;;9.30;2.30;;;14.60;95.90;;;;;;880372;159;27416;-76
2023/01/05 09:49:26;;;;;;;8.98;2.50;;;14.70;95.80;;;;;;894428;157;27408;-75
2023/01/05 09:52:00;;;;;;;5.00;1.90;;;14.70;95.60;;;;;;880758;160;27455;-78
2023/01/05 09:54:26;;;;;;;6.12;2.45;;;14.70;95.60;;;;;;878376;161;27905;-76
2023/01/05 09:56:53;;;;;;;5.60;2.05;;;14.80;95.50;;;;;;895992;158;27424;-74
2023/01/05 09:59:26;;;;;;;4.65;2.02;;;14.80;95.20;;;;;;880647;162;28705;-74
2023/01/05 10:01:52;;;;;;;6.45;2.22;;;14.80;95.10;;;;;;896007;158;27499;-74
2023/01/05 10:04:19;;;;;;;6.30;2.70;;;14.80;95.30;;;;;;882419;161;27373;-75
2023/01/05 10:06:45;;;;;;;8.60;2.30;;;14.90;95.50;;;;;;896063;156;27415;-75
2023/01/05 10:09:18;;;;;;;5.60;2.15;;;15.00;95.50;;;;;;887501;160;27517;-74
2023/01/05 10:14:38;;;;;;;7.30;1.95;;;15.10;95.30;;;;;;880514;160;27574;-77
2023/01/05 10:17:13;;;;;;;8.40;2.40;;;15.20;95.10;;;;;;880635;161;27404;-77
2023/01/05 10:19:40;;;;;;;3.72;1.70;;;15.30;94.90;;;;;;896290;157;27538;-74
2023/01/05 10:22:19;;;;;;;5.12;1.90;;;15.30;94.70;;;;;;881141;161;27469;-75
2023/01/05 10:24:45;;;;;;;5.22;1.85;;;15.30;94.50;;;;;;898803;157;27386;-75
2023/01/05 10:27:18;;;;;;;6.47;1.80;;;15.40;94.40;;;;;;906370;155;27281;-78
2023/01/05 10:29:47;;;;;;;4.97;2.30;;;15.50;94.40;;;;;;904489;158;27395;-74
2023/01/05 10:32:26;;;;;;;6.35;1.90;;;15.50;94.40;;;;;;906336;155;27871;-74
2023/01/05 10:34:55;;;;;;;3.02;1.98;;;15.50;94.10;;;;;;903813;158;27448;-76
2023/01/05 10:37:43;;;;;;;5.40;2.02;;;15.60;93.60;;;;;;905369;155;27389;-76
2023/01/05 10:40:37;;;;;;;5.05;1.70;;;15.60;93.40;;;;;;905851;158;27374;-75
2023/01/05 10:43:18;;;;;;;4.25;1.80;;;15.60;93.20;;;;;;906093;155;27460;-75
2023/01/05 10:45:45;;;;;;;5.28;2.02;;;15.60;93.40;;;;;;889403;160;27376;-76
2023/01/05 10:48:15;;;;;;;5.67;1.65;;;15.60;93.50;;;;;;912032;155;27364;-75
2023/01/05 10:50:44;;;;;;;6.70;1.90;;;15.70;93.50;;;;;;911765;155;27390;-78
2023/01/05 10:53:20;;;;;;;4.40;1.90;;;15.70;93.40;;;;;;929820;151;27412;-74
2023/01/05 10:56:04;;;;;;;6.28;1.65;;;15.80;93.20;;;;;;910959;155;27406;-76
2023/01/05 10:58:31;;;;;;;5.75;2.02;;;15.80;93.00;;;;;;911298;155;27405;-74
2023/01/05 11:00:57;;;;;;;5.35;2.02;;;15.90;92.80;;;;;;911173;155;27420;-75
2023/01/05 11:03:36;;;;;;;5.95;2.20;;;15.90;92.40;;;;;;908839;153;27415;-78
2023/01/05 11:06:03;;;;;;;4.95;2.08;;;16.00;92.60;;;;;;909381;155;27447;-74
2023/01/05 11:08:29;;;;;;;4.83;1.55;;;16.00;92.50;;;;;;908374;155;27354;-76
2023/01/05 11:10:59;;;;;;;6.62;2.10;;;16.00;92.50;;;;;;909951;155;27429;-74
2023/01/05 11:13:31;;;;;;;4.55;2.08;;;16.10;92.50;;;;;;907124;155;27364;-77
2023/01/05 11:16:15;;;;;;;6.17;2.20;;;16.20;91.90;;;;;;906957;155;27420;-75
2023/01/05 11:19:02;;;;;;;8.45;2.12;;;16.20;91.60;;;;;;908185;155;27453;-76
2023/01/05 11:21:29;;;;;;;6.95;1.95;;;16.20;91.50;;;;;;909419;155;27408;-75
2023/01/05 11:23:53;;;;;;;7.97;2.37;;;16.20;91.50;;;;;;910203;155;27467;-78
2023/01/05 11:26:38;;;;;;;5.28;2.22;;;16.20;91.30;;;;;;903246;155;27563;-77
2023/01/05 11:29:07;;;;;;;7.28;2.62;;;16.20;91.20;;;;;;900423;156;27456;-75
2023/01/05 11:31:37;;;;;;;5.47;2.67;;;16.20;91.00;;;;;;903930;154;27446;-74
2023/01/05 11:34:06;;;;;;;7.10;2.02;;;16.20;90.90;;;;;;900703;156;27453;-78
2023/01/05 11:36:32;;;;;;;8.45;3.00;;;16.20;90.80;;;;;;902518;156;27430;-76
2023/01/05 11:38:59;;;;;;;4.90;2.42;;;16.20;90.70;;;;;;905424;156;27488;-74
2023/01/05 11:41:26;;;;;;;10.10;3.02;;;16.20;90.50;;;;;;902967;153;27417;-75
2023/01/05 11:43:53;;;;;;;6.28;2.35;;;16.20;90.70;;;;;;905063;154;27493;-75
2023/01/05 11:46:19;;;;;;;8.33;2.47;;;16.20;90.40;;;;;;901787;157;27484;-75
2023/01/05 11:48:48;;;;;;;5.58;2.72;;;16.30;90.30;;;;;;900519;156;27352;-79
2023/01/05 11:51:33;;;;;;;5.50;2.10;;;16.30;90.20;;;;;;897610;155;27462;-74
2023/01/05 11:54:00;;;;;;;4.78;2.02;;;16.30;90.20;;;;;;901226;157;27496;-75
2023/01/05 11:56:26;;;;;;;8.80;3.20;;;16.30;90.20;;;;;;901251;156;27417;-76
2023/01/05 11:58:59;;;;;;;8.15;2.10;;;16.30;90.00;;;;;;903218;156;27515;-75
2023/01/05 12:01:44;;;;;;;6.75;2.08;;;16.30;89.80;;;;;;905197;156;27406;-74
2023/01/05 12:04:34;;;;;;;6.37;2.22;;;16.30;89.70;;;;;;903118;156;27364;-76
2023/01/05 12:07:25;;;;;;;7.87;2.87;;;16.30;89.50;;;;;;900435;156;27462;-76
2023/01/05 12:09:55;;;;;;;6.70;2.20;;;16.30;89.50;;;;;;903478;156;27456;-78
2023/01/05 12:12:49;;;;;;;7.78;2.33;;;16.30;89.60;;;;;;903410;154;27483;-75
2023/01/05 12:15:49;;;;;;;6.33;2.17;;;16.30;89.20;;;;;;901904;157;27381;-75
2023/01/05 12:18:43;;;;;;;8.58;3.20;;;16.30;89.00;;;;;;902574;156;27446;-76
2023/01/05 12:21:15;;;;;;;8.78;2.65;;;16.40;89.30;;;;;;900960;157;27489;-75
2023/01/05 12:24:02;;;;;;;7.83;2.75;;;16.30;88.60;;;;;;905838;156;27426;-74
2023/01/05 12:26:29;;;;;;;9.33;2.30;;;16.30;87.80;;;;;;905985;155;27468;-75
2023/01/05 12:29:01;;;;;;;6.25;2.50;;;16.30;87.50;;;;;;909581;153;27391;-75
2023/01/05 12:31:55;;;;;;;5.62;2.25;;;16.30;87.10;;;;;;911142;155;27384;-76
2023/01/05 12:34:40;;;;;;;6.30;2.37;;;16.20;87.10;;;;;;912036;155;27476;-77
2023/01/05 12:37:24;;;;;;;6.12;2.40;;;16.20;87.10;;;;;;910230;155;27396;-75
2023/01/05 12:40:03;;;;;;;5.83;2.12;;;16.20;87.30;;;;;;909595;155;27297;-75
2023/01/05 12:42:29;;;;;;;9.05;2.72;;;16.20;87.40;;;;;;908689;155;27430;-75
2023/01/05 12:44:59;;;;;;;6.25;2.30;;;16.20;87.40;;;;;;910280;155;28124;-76
2023/01/05 12:47:46;;;;;;;5.17;2.05;;;16.20;87.20;;;;;;907050;155;28543;-75
2023/01/05 12:50:13;;;;;;;7.65;2.37;;;16.20;87.40;;;;;;911476;155;27773;-74
2023/01/05 12:52:40;;;;;;;10.00;2.60;;;16.20;87.50;;;;;;891580;155;27365;-74
2023/01/05 12:55:15;;;;;;;4.92;2.27;;;16.30;87.10;;;;;;911684;155;27494;-74
2023/01/05 12:57:43;;;;;;;8.18;2.52;;;16.30;87.00;;;;;;908131;155;27473;-75
2023/01/05 13:00:11;;;;;;;3.87;1.85;;;16.30;87.30;;;;;;905821;155;27413;-75
2023/01/05 13:02:38;;;;;;;7.75;2.87;;;16.40;87.10;;;;;;910636;155;27367;-74
2023/01/05 13:05:12;;;;;;;7.95;2.75;;;16.50;87.10;;;;;;909402;155;27539;-76
2023/01/05 13:07:44;;;;;;;4.33;1.77;;;16.50;86.50;;;;;;908779;155;27368;-74
2023/01/05 13:10:20;;;;;;;6.40;2.65;;;16.60;86.20;;;;;;906406;155;27367;-75
2023/01/05 13:12:47;;;;;;;8.40;3.15;;;16.60;85.50;;;;;;909433;155;27431;-78
2023/01/05 13:15:16;;;;;;;8.55;2.55;;;16.70;85.20;;;;;;910031;155;27883;-75
2023/01/05 13:17:42;;;;;;;12.65;2.65;;;16.70;84.50;;;;;;908428;155;27356;-75
2023/01/05 13:20:09;;;;;;;6.70;2.70;;;16.70;83.90;;;;;;910620;155;27368;-75
2023/01/05 13:22:36;;;;;;;7.17;2.20;;;16.70;83.60;;;;;;907142;155;27469;-79
2023/01/05 13:25:02;;;;;;;7.22;2.45;;;16.60;83.30;;;;;;909632;155;27520;-76
2023/01/05 13:27:30;;;;;;;8.33;2.27;;;16.60;83.40;;;;;;903947;155;27398;-75
2023/01/05 13:29:58;;;;;;;5.80;2.25;;;16.60;83.20;;;;;;900248;154;27422;-76
2023/01/05 13:32:28;;;;;;;5.60;2.30;;;16.60;82.90;;;;;;901409;157;27376;-77